CGZMA CYTZ-CYYZ
Flight info
| Callsign | CGZMA |
|---|---|
| Flight time | 0h -3m |
| Altitude | 8500 |
| Route | APLOV DCT LORKA DCT TESUK |
| Aircraft | C208/L-SDFGR/C |
Departure
| Time | 2026-05-09 00:29 |
|---|---|
| Airport | Billy Bishop Toronto City Airport (CYTZ) |
Arrival
| Time | 2026-05-09 00:25 |
|---|---|
| Airport | Toronto Pearson International Airport (CYYZ) |
| Time | Latitude | Longitude | Altitude | Speed | Heading |
|---|---|---|---|---|---|
| 2026-05-09 00:25 | 43.63077 | -79.39358 | 260 ft | 24 kts | 250° |
| 2026-05-09 00:25 | 43.63033 | -79.39525 | 259 ft | 18 kts | 250° |
| 2026-05-09 00:25 | 43.62996 | -79.39664 | 260 ft | 8 kts | 210° |
| 2026-05-09 00:26 | 43.62981 | -79.39661 | 261 ft | 0 kts | 151° |
| 2026-05-09 00:27 | 43.62971 | -79.39654 | 261 ft | 0 kts | 151° |
| 2026-05-09 00:28 | 43.62930 | -79.39580 | 263 ft | 7 kts | 71° |
| 2026-05-09 00:28 | 43.63011 | -79.39253 | 265 ft | 90 kts | 73° |
| 2026-05-09 00:28 | 43.63260 | -79.38308 | 653 ft | 111 kts | 72° |
| 2026-05-09 00:29 | 43.63514 | -79.37318 | 1184 ft | 107 kts | 86° |
| 2026-05-09 00:29 | 43.63271 | -79.36382 | 1586 ft | 107 kts | 145° |
| 2026-05-09 00:29 | 43.62631 | -79.36166 | 2148 ft | 93 kts | 196° |
| 2026-05-09 00:29 | 43.62055 | -79.36693 | 2461 ft | 110 kts | 230° |
| 2026-05-09 00:30 | 43.61823 | -79.37816 | 2469 ft | 136 kts | 271° |
| 2026-05-09 00:30 | 43.62015 | -79.39146 | 2455 ft | 146 kts | 280° |
| 2026-05-09 00:30 | 43.62271 | -79.40495 | 2460 ft | 145 kts | 281° |
| 2026-05-09 00:30 | 43.62523 | -79.41836 | 2469 ft | 144 kts | 279° |
| 2026-05-09 00:31 | 43.62697 | -79.43187 | 2481 ft | 143 kts | 279° |
| 2026-05-09 00:31 | 43.62891 | -79.44530 | 2480 ft | 143 kts | 281° |
| 2026-05-09 00:31 | 43.63100 | -79.45879 | 2495 ft | 143 kts | 281° |
| 2026-05-09 00:31 | 43.63310 | -79.47222 | 2505 ft | 143 kts | 281° |
| 2026-05-09 00:32 | 43.63520 | -79.48558 | 2499 ft | 142 kts | 281° |
| 2026-05-09 00:32 | 43.63728 | -79.49891 | 2505 ft | 143 kts | 281° |
| 2026-05-09 00:32 | 43.63938 | -79.51235 | 2502 ft | 143 kts | 281° |
| 2026-05-09 00:32 | 43.64147 | -79.52569 | 2496 ft | 142 kts | 281° |
| 2026-05-09 00:33 | 43.64360 | -79.53946 | 2497 ft | 152 kts | 281° |
| 2026-05-09 00:33 | 43.64587 | -79.55402 | 2497 ft | 157 kts | 281° |
| 2026-05-09 00:33 | 43.64816 | -79.56861 | 2494 ft | 154 kts | 281° |
| 2026-05-09 00:33 | 43.65042 | -79.58303 | 2496 ft | 153 kts | 280° |
| 2026-05-09 00:34 | 43.65264 | -79.59734 | 2493 ft | 152 kts | 281° |
| 2026-05-09 00:34 | 43.65613 | -79.61101 | 2504 ft | 154 kts | 305° |
| 2026-05-09 00:34 | 43.66365 | -79.62164 | 2506 ft | 156 kts | 315° |
| 2026-05-09 00:34 | 43.67168 | -79.63139 | 2502 ft | 149 kts | 317° |
| 2026-05-09 00:35 | 43.67944 | -79.64071 | 2389 ft | 148 kts | 316° |
| 2026-05-09 00:35 | 43.68719 | -79.64996 | 2231 ft | 145 kts | 317° |
| 2026-05-09 00:35 | 43.69462 | -79.65891 | 2072 ft | 138 kts | 316° |
| 2026-05-09 00:35 | 43.70248 | -79.66586 | 1912 ft | 136 kts | 348° |
| 2026-05-09 00:36 | 43.71114 | -79.66232 | 1774 ft | 133 kts | 43° |
| 2026-05-09 00:36 | 43.71749 | -79.65326 | 1630 ft | 130 kts | 51° |
| 2026-05-09 00:36 | 43.72307 | -79.64389 | 1599 ft | 122 kts | 54° |
| 2026-05-09 00:36 | 43.72824 | -79.63509 | 1595 ft | 115 kts | 53° |
| 2026-05-09 00:37 | 43.73163 | -79.62604 | 1604 ft | 100 kts | 100° |
| 2026-05-09 00:37 | 43.72793 | -79.61899 | 1601 ft | 91 kts | 139° |
| 2026-05-09 00:37 | 43.72324 | -79.61313 | 1523 ft | 94 kts | 141° |
| 2026-05-09 00:37 | 43.71720 | -79.61138 | 1412 ft | 95 kts | 204° |
| 2026-05-09 00:38 | 43.71119 | -79.61580 | 1252 ft | 101 kts | 208° |
| 2026-05-09 00:38 | 43.70559 | -79.62156 | 1168 ft | 94 kts | 216° |
| 2026-05-09 00:38 | 43.70134 | -79.62653 | 964 ft | 69 kts | 212° |
| 2026-05-09 00:38 | 43.69783 | -79.63025 | 749 ft | 66 kts | 212° |
| 2026-05-09 00:39 | 43.69452 | -79.63456 | 633 ft | 62 kts | 215° |
| 2026-05-09 00:39 | 43.69153 | -79.63886 | 572 ft | 59 kts | 216° |
| 2026-05-09 00:39 | 43.68927 | -79.64212 | 572 ft | 37 kts | 225° |
| 2026-05-09 00:39 | 43.68757 | -79.64420 | 570 ft | 29 kts | 235° |
| 2026-05-09 00:40 | 43.68685 | -79.64652 | 567 ft | 25 kts | 284° |
| 2026-05-09 00:40 | 43.68676 | -79.64881 | 568 ft | 24 kts | 272° |
| 2026-05-09 00:40 | 43.68764 | -79.65032 | 569 ft | 25 kts | 6° |
| 2026-05-09 00:41 | 43.68991 | -79.64838 | 568 ft | 17 kts | 307° |
| 2026-05-09 00:41 | 43.69088 | -79.64968 | 571 ft | 21 kts | 323° |
| 2026-05-09 00:41 | 43.69116 | -79.65002 | 568 ft | 21 kts | 318° |